Latest Weather Observations for Scotts Peak

IDT60801

Issued at 7:31 pm EST Thursday 2 July 2015 (issued every 30 minutes, with the page automatically refreshed every 10 minutes)

About weather observations | Map of weather stations | Latest weather observations for TAS | Other Formats
Station Details ID: 097083 Name: SCOTTS PEAK DAM Lat: -43.04 Lon: 146.27 Height: 408.0 m
Data from the previous 72 hours. | See also: Recent months at Scotts Peak
Date/Time
EST
Temp
°C
App
Temp
°C
Dew
Point
Rel
Hum
%
Delta-T
°C
Wind Press
QNH
hPa
Press
MSL
hPa
Rain
since 9 am
mm
Dir
 
Spd
km/h
Gust
km/h
Spd
kts
Gust
kts
02/07:30pm 2.1 -3.5 0.9 92 0.5 WNW 20 44 11 24 - - -
02/07:00pm 2.8 -1.2 0.5 85 0.9 SW 11 20 6 11 - - -
02/06:30pm 2.5 -1.4 1.2 91 0.5 NNW 11 20 6 11 - - -
02/06:00pm 2.5 -1.4 1.2 91 0.5 N 11 17 6 9 - - -
02/05:30pm 2.7 -2.9 1.5 92 0.5 WNW 20 39 11 21 - - -
02/05:00pm 3.2 -1.1 0.9 85 0.9 WNW 13 28 7 15 - - -
02/04:30pm 3.2 -1.1 1.3 87 0.8 WNW 13 41 7 22 - - 5.0
02/04:00pm 3.2 -3.5 1.3 87 0.8 WNW 26 48 14 26 - - 4.8
02/03:56pm 3.2 -3.9 1.4 88 0.7 NW 28 48 15 26 - - 4.8
02/03:30pm 3.1 -2.2 2.1 93 0.4 NW 19 41 10 22 - - 4.8
02/03:00pm 3.5 -4.8 1.9 89 0.6 WNW 35 59 19 32 - - 4.8
02/02:55pm 3.7 -3.7 2.1 89 0.7 WNW 30 52 16 28 - - 4.8
02/02:30pm 3.0 -2.7 2.6 97 0.2 W 22 43 12 23 - - 4.8
02/02:22pm 2.7 -3.9 2.0 95 0.3 W 26 46 14 25 - - 4.8
02/02:06pm 3.4 -5.4 1.6 88 0.7 W 37 69 20 37 - - 4.0
02/02:05pm 3.7 -4.7 1.7 87 0.8 WNW 35 56 19 30 - - 4.0
02/02:00pm 4.4 -2.8 3.2 92 0.5 WNW 30 43 16 23 - - 4.0
02/01:30pm 3.0 -3.6 2.3 95 0.3 W 26 37 14 20 - - 4.0
02/01:04pm 2.5 -5.4 1.3 92 0.5 W 32 72 17 39 - - 3.8
02/01:03pm 2.6 -4.5 1.4 92 0.5 W 28 48 15 26 - - 3.6
02/01:00pm 3.0 -4.1 1.5 90 0.6 W 28 41 15 22 - - 3.6
02/12:43pm 2.9 -4.4 2.2 95 0.3 WNW 30 48 16 26 - - 3.0
02/12:30pm 3.6 -1.9 2.1 90 0.6 WSW 20 41 11 22 - - 2.6
02/12:11pm 3.6 -3.4 1.8 88 0.7 WSW 28 61 15 33 - - 2.6
02/12:00pm 4.7 -2.2 2.4 85 1.0 WSW 28 44 15 24 - - 2.4
02/11:48am 3.9 -3.2 1.6 85 0.9 WSW 28 52 15 28 - - 2.4
02/11:30am 4.2 -2.0 2.1 86 0.9 WSW 24 41 13 22 - - 2.4
02/11:00am 3.8 -4.5 2.3 90 0.6 WSW 35 57 19 31 - - 2.0
02/10:38am 3.1 -5.2 2.1 93 0.4 WSW 35 54 19 29 - - 2.0
02/10:36am 3.1 -5.6 2.1 93 0.4 WSW 37 56 20 30 - - 2.0
02/10:30am 3.1 -5.2 2.2 94 0.4 WSW 35 56 19 30 - - 2.0
02/10:07am 3.1 -3.5 2.2 94 0.4 W 26 46 14 25 - - 1.8
02/10:00am 2.6 -3.6 1.9 95 0.3 WSW 24 39 13 21 - - 1.8
02/09:49am 2.2 -5.3 0.9 91 0.5 WSW 30 48 16 26 - - 1.4
02/09:47am 2.2 -5.4 0.7 90 0.6 WSW 30 46 16 25 - - 1.2
02/09:30am 2.6 -6.6 1.3 91 0.5 W 39 69 21 37 - - 0.8
02/09:25am 2.5 -7.5 1.2 91 0.5 W 43 69 23 37 - - 0.8
02/09:07am 3.5 -4.4 1.1 84 0.9 W 32 52 17 28 - - 0.0
02/09:00am 3.2 -4.3 1.3 87 0.8 W 30 54 16 29 - - -
02/08:45am 3.2 -3.9 1.1 86 0.8 W 28 52 15 28 - - -
02/08:30am 3.0 -4.2 0.9 86 0.8 WNW 28 48 15 26 - - -
02/08:29am 2.8 -4.4 1.0 88 0.7 WNW 28 48 15 26 - - -
02/08:00am 3.3 -6.7 0.9 84 0.9 W 43 69 23 37 - - -
02/07:32am 3.0 -6.2 1.1 87 0.7 W 39 61 21 33 - - -
02/07:30am 2.7 -5.8 1.1 89 0.6 WNW 35 54 19 29 - - -
02/07:27am 2.8 -5.2 0.5 85 0.9 WNW 32 54 17 29 - - -
02/07:00am 2.0 -5.9 1.0 93 0.4 W 32 46 17 25 - - -
02/06:30am 3.0 -3.8 1.1 87 0.7 WNW 26 35 14 19 - - -
02/06:09am 2.8 -4.3 1.5 91 0.5 WNW 28 46 15 25 - - -
02/06:00am 2.4 -5.5 1.2 92 0.5 W 32 43 17 23 - - -
02/05:30am 3.3 -7.5 1.7 89 0.6 WNW 48 63 26 34 - - -
02/05:22am 2.9 -7.0 1.6 91 0.5 WNW 43 63 23 34 - - -
02/05:00am 3.4 -4.7 1.3 86 0.8 WNW 33 46 18 25 - - -
02/04:30am 3.4 -6.2 1.0 84 0.9 WNW 41 54 22 29 - - -
02/04:00am 3.5 -7.0 1.2 85 0.9 WNW 46 61 25 33 - - -
02/03:34am 2.9 -5.5 1.4 90 0.6 WNW 35 57 19 31 - - -
02/03:30am 3.5 -4.9 1.4 86 0.8 W 35 46 19 25 - - -
02/03:00am 3.2 -7.6 1.7 90 0.6 WNW 48 67 26 36 - - 6.0
02/02:53am 3.1 -7.4 1.6 90 0.6 WNW 46 67 25 36 - - -
02/02:30am 2.7 -8.9 1.7 93 0.4 WNW 52 65 28 35 - - -
02/02:14am 3.7 -7.7 0.6 80 1.2 W 50 69 27 37 - - -
02/02:00am 3.1 -8.2 1.0 86 0.8 WNW 50 63 27 34 - - -
02/01:37am 3.5 -7.9 0.7 82 1.1 WNW 50 70 27 38 - - -
02/01:30am 3.1 -8.6 1.2 87 0.7 WNW 52 69 28 37 - - -
02/01:04am 3.4 -8.5 1.9 90 0.6 WNW 54 72 29 39 - - -
02/01:00am 3.4 -9.1 2.1 91 0.5 WNW 57 72 31 39 - - -
02/12:30am 2.9 -7.5 2.0 94 0.4 WNW 46 65 25 35 - - -
02/12:00am 3.1 -7.3 2.2 94 0.4 W 46 67 25 36 - - -
 
Date/Time
EST
Temp
°C
App
Temp
°C
Dew
Point
Rel
Hum
%
Delta-T
°C
Wind Press
QNH
hPa
Press
MSL
hPa
Rain
since 9 am
mm
Dir
 
Spd
km/h
Gust
km/h
Spd
kts
Gust
kts
01/11:48pm 3.0 -7.4 2.1 94 0.4 W 46 70 25 38 - - -
01/11:42pm 3.0 -6.0 2.7 98 0.1 W 39 52 21 28 - - -
01/11:33pm 3.8 -4.6 3.7 99 0.0 WNW 37 61 20 33 - - -
01/11:30pm 3.8 -5.4 3.7 99 0.0 NW 41 61 22 33 - - -
01/11:25pm 3.6 -6.2 3.5 99 0.0 NW 44 63 24 34 - - -
01/11:17pm 3.8 -7.8 3.7 99 0.0 NW 54 69 29 37 - - -
01/11:00pm 4.2 -9.6 3.3 94 0.4 WNW 65 83 35 45 - - -
01/10:32pm 4.4 -8.9 3.7 95 0.3 WNW 63 83 34 45 - - -
01/10:30pm 4.5 -8.9 3.5 93 0.4 WNW 63 83 34 45 - - -
01/10:29pm 4.5 -8.5 3.5 93 0.4 NW 61 83 33 45 - - -
01/10:17pm 4.5 -5.9 4.2 98 0.1 NW 48 67 26 36 - - -
01/10:05pm 5.0 -6.5 4.3 95 0.3 NW 54 83 29 45 - - -
01/10:00pm 4.9 -8.4 3.7 92 0.5 WNW 63 83 34 45 - - -
01/09:38pm 5.2 -6.9 4.2 93 0.4 WNW 57 76 31 41 - - -
01/09:30pm 5.1 -5.6 4.7 97 0.2 WNW 50 76 27 41 - - -
01/09:16pm 5.0 -4.3 4.9 99 0.0 WNW 43 61 23 33 - - -
01/09:06pm 4.9 -5.8 4.6 98 0.1 WNW 50 76 27 41 - - -
01/09:00pm 5.1 -7.6 5.0 99 0.0 WNW 61 85 33 46 - - 9.0
01/08:48pm 4.7 -7.1 4.6 99 0.0 NW 56 76 30 41 - - -
01/08:30pm 4.4 -7.1 4.3 99 0.0 NW 54 65 29 35 - - -
01/08:02pm 4.0 -6.5 3.9 99 0.0 NW 48 67 26 36 - - -
01/08:00pm 4.0 -6.1 3.9 99 0.0 NW 46 61 25 33 - - -
01/07:30pm 3.7 -4.0 3.6 99 0.0 NW 33 44 18 24 - - -
01/07:27pm 3.6 -4.1 3.5 99 0.0 NW 33 44 18 24 - - -
01/07:00pm 3.5 -7.1 3.1 97 0.2 W 48 59 26 32 - - -
01/06:47pm 3.4 -8.0 3.1 98 0.1 W 52 65 28 35 - - -
01/06:30pm 3.1 -11.6 2.5 96 0.2 W 69 96 37 52 - - -
01/06:25pm 3.3 -11.1 2.3 93 0.4 W 67 96 36 52 - - -
01/06:23pm 4.2 -10.0 3.0 92 0.5 WNW 67 96 36 52 - - -
01/06:21pm 6.1 -7.4 4.7 91 0.6 WNW 65 95 35 51 - - -
01/06:20pm 6.9 -6.7 6.3 96 0.3 NW 67 95 36 51 - - -
01/06:00pm 7.5 -8.0 6.9 96 0.3 NNW 78 104 42 56 - - -
01/05:30pm 7.9 -8.5 6.5 91 0.7 NNW 82 102 44 55 - - -
01/05:01pm 8.2 -5.9 5.5 83 1.2 NW 69 87 37 47 - - -
01/05:00pm 8.1 -6.2 5.7 85 1.1 NW 70 87 38 47 - - -
01/04:30pm 8.0 -6.3 5.6 85 1.1 NNW 70 89 38 48 - - -
01/04:00pm 7.8 -4.0 5.8 87 0.9 NW 57 78 31 42 - - -
01/03:57pm 7.7 -5.2 5.8 88 0.9 NNW 63 95 34 51 - - -
01/03:52pm 7.8 -6.8 6.1 89 0.8 NNW 72 106 39 57 - - -
01/03:30pm 7.4 -9.0 6.5 94 0.4 NNW 82 120 44 65 - - -
01/03:26pm 7.5 -8.4 6.8 95 0.3 NNW 80 120 43 65 - - -
01/03:00pm 7.7 -7.1 6.8 94 0.4 NW 74 96 40 52 - - -
01/02:30pm 7.9 -6.0 6.7 92 0.6 NNW 69 89 37 48 - - -
01/02:00pm 8.8 -3.7 6.1 83 1.3 NW 61 80 33 43 - - -
01/01:47pm 8.8 -3.2 6.6 86 1.0 NW 59 78 32 42 - - -
01/01:30pm 8.5 -3.2 6.3 86 1.0 NW 57 74 31 40 - - -
01/01:00pm 7.6 -5.9 6.5 93 0.5 NW 67 95 36 51 - - -
01/12:54pm 8.2 -2.9 6.3 88 0.9 NW 54 83 29 45 - - -
01/12:46pm 8.0 -0.7 7.6 97 0.2 NNW 43 61 23 33 - - -
01/12:10pm 7.8 -0.1 7.7 99 0.0 NNW 39 57 21 31 - - 0.6
01/12:00pm 7.7 -0.3 7.3 97 0.2 NNW 39 50 21 27 - - 0.6
01/11:30am 7.7 -1.3 7.1 96 0.3 NNW 44 65 24 35 - - 0.6
01/11:02am 7.5 0.7 6.9 96 0.3 NW 32 50 17 27 - - 0.4
01/11:00am 7.4 0.5 7.3 99 0.0 NNW 33 50 18 27 - - 0.4
01/10:55am 7.2 0.4 7.1 99 0.0 NNW 32 50 17 27 - - 0.4
01/10:30am 7.1 1.1 7.0 99 0.0 NNW 28 39 15 21 - - 0.2
01/10:17am 7.0 0.0 6.9 99 0.0 NNW 33 52 18 28 - - 0.2
01/10:00am 7.1 -0.7 6.8 98 0.1 NNW 37 46 20 25 - - 0.0
01/09:30am 7.1 -0.3 6.8 98 0.1 NNW 35 44 19 24 - - 0.0
01/09:00am 6.9 -0.2 6.5 97 0.2 NW 33 52 18 28 - - 2.6
01/08:59am 6.9 -0.2 6.5 97 0.2 NW 33 52 18 28 - - 2.6
01/08:30am 6.6 -0.3 6.5 99 0.0 NNW 32 44 17 24 - - 2.6
01/08:00am 6.3 0.1 6.2 99 0.0 NNW 28 39 15 21 - - 2.6
01/07:30am 6.1 -1.1 6.0 99 0.0 NNW 33 43 18 23 - - 2.6
01/07:07am 6.1 -1.5 6.0 99 0.0 NNW 35 54 19 29 - - 2.6
01/07:00am 6.1 -3.0 6.0 99 0.0 NNW 43 54 23 29 - - 2.6
01/06:30am 5.9 -2.8 5.8 99 0.0 NNW 41 56 22 30 - - 2.6
01/06:20am 6.1 -2.2 6.0 99 0.0 NNW 39 57 21 31 - - 2.6
01/06:00am 6.5 0.4 6.4 99 0.0 NW 28 33 15 18 - - 2.6
01/05:30am 6.5 1.9 6.4 99 0.0 NNW 20 30 11 16 - - 2.2
01/05:00am 6.5 2.5 6.5 100 0.0 NNW 17 19 9 10 - - 2.2
01/04:30am 6.5 1.9 6.4 99 0.0 NNW 20 28 11 15 - - 2.2
01/04:00am 6.6 2.0 6.5 99 0.0 NNW 20 24 11 13 - - 1.4
01/03:30am 6.5 1.1 6.4 99 0.0 N 24 32 13 17 - - 1.2
01/03:00am 6.5 1.5 6.5 100 0.0 NNW 22 28 12 15 - - 1.2
01/02:30am 6.6 1.2 6.5 99 0.0 NNW 24 32 13 17 - - 1.0
01/02:00am 6.5 1.1 6.4 99 0.0 NNW 24 30 13 16 - - 0.6
01/01:30am 6.5 0.7 6.4 99 0.0 NNW 26 32 14 17 - - 0.6
01/01:00am 6.5 0.4 6.4 99 0.0 N 28 32 15 17 - - 0.4
01/12:30am 6.5 0.0 6.4 99 0.0 NNW 30 37 16 20 - - 0.4
01/12:00am 6.6 0.5 6.5 99 0.0 NNW 28 33 15 18 - - 0.4
 
Date/Time
EST
Temp
°C
App
Temp
°C
Dew
Point
Rel
Hum
%
Delta-T
°C
Wind Press
QNH
hPa
Press
MSL
hPa
Rain
since 9 am
mm
Dir
 
Spd
km/h
Gust
km/h
Spd
kts
Gust
kts
30/11:30pm 6.6 1.2 6.5 99 0.0 NNW 24 28 13 15 - - 0.4
30/11:00pm 6.5 0.7 6.4 99 0.0 NNW 26 28 14 15 - - 0.4
30/10:30pm 6.5 0.4 6.4 99 0.0 NNW 28 33 15 18 - - 0.4
30/10:00pm 6.5 1.9 6.4 99 0.0 NNW 20 24 11 13 - - 0.4
30/09:30pm 6.6 2.2 6.5 99 0.0 NNW 19 22 10 12 - - 0.2
30/09:00pm 6.5 0.4 6.4 99 0.0 NNW 28 33 15 18 - - 0.2
30/08:30pm 6.4 1.9 6.3 99 0.0 NNW 19 24 10 13 - - 0.2
30/08:00pm 6.6 0.9 6.5 99 0.0 NNW 26 32 14 17 - - 0.2
30/07:30pm 6.7 1.4 6.6 99 0.0 NNW 24 30 13 16 - - 0.2
30/07:00pm 6.7 3.1 6.6 99 0.0 NNW 15 20 8 11 - - 0.2
30/06:30pm 6.7 1.0 6.6 99 0.0 NNW 26 32 14 17 - - 0.2
30/06:00pm 6.7 2.1 6.3 97 0.2 NNW 20 26 11 14 - - 0.2
30/05:30pm 7.3 1.5 6.2 93 0.5 NW 26 33 14 18 - - 0.2
30/05:00pm 7.3 0.6 5.8 90 0.7 NW 30 43 16 23 - - 0.2
30/04:30pm 7.6 2.5 6.2 91 0.7 NW 22 30 12 16 - - 0.2
30/04:00pm 7.9 2.6 6.7 92 0.6 NW 24 35 13 19 - - 0.2
30/03:30pm 8.2 2.5 6.8 91 0.7 NW 26 32 14 17 - - 0.2
30/03:00pm 8.4 1.4 5.9 84 1.2 WNW 32 39 17 21 - - 0.2
30/02:30pm 8.4 3.5 6.9 90 0.7 NW 22 33 12 18 - - 0.2
30/02:00pm 8.1 2.6 7.5 96 0.3 NW 26 35 14 19 - - 0.2
30/01:30pm 7.9 1.8 6.5 91 0.7 NW 28 37 15 20 - - 0.2
30/01:00pm 8.5 2.3 7.7 95 0.4 NW 30 37 16 20 - - 0.2
30/12:30pm 8.1 2.3 8.0 99 0.0 NW 28 35 15 19 - - 0.2
30/12:00pm 8.1 4.0 8.0 99 0.0 NNW 19 22 10 12 - - 0.2
30/11:30am 8.2 4.5 8.1 99 0.0 NNW 17 19 9 10 - - 0.2
30/11:00am 7.8 3.5 7.7 99 0.0 NNW 20 32 11 17 - - 0.2
30/10:30am 7.3 1.7 7.2 99 0.0 NW 26 35 14 19 - - 0.2
30/10:00am 7.3 2.9 7.3 100 0.0 NNW 20 24 11 13 - - 0.2
30/09:30am 7.1 2.8 7.1 100 0.0 NNW 19 24 10 13 - - 0.0
30/09:00am 6.9 2.6 6.9 100 0.0 NNW 19 20 10 11 - - 0.6
30/08:30am 6.8 2.5 6.8 100 0.0 NNW 19 22 10 12 - - 0.6
30/08:00am 6.5 1.1 6.4 99 0.0 NNW 24 30 13 16 - - 0.6
30/07:30am 6.5 0.4 6.4 99 0.0 NNW 28 33 15 18 - - 0.4
30/07:00am 6.4 0.6 6.3 99 0.0 NNW 26 33 14 18 - - 0.4
30/06:30am 6.3 0.5 6.2 99 0.0 NNW 26 33 14 18 - - 0.4
30/06:00am 6.5 0.0 6.4 99 0.0 NNW 30 35 16 19 - - 0.4
30/05:30am 6.5 0.4 6.4 99 0.0 NNW 28 33 15 18 - - 0.4
30/05:00am 6.4 -0.5 6.3 99 0.0 NNW 32 37 17 20 - - 0.4
30/04:30am 6.5 -1.0 6.4 99 0.0 NNW 35 41 19 22 - - 0.4
30/04:00am 6.6 -1.2 6.5 99 0.0 NNW 37 43 20 23 - - 0.4
30/03:30am 6.5 -0.6 6.4 99 0.0 NNW 33 39 18 21 - - 0.4
30/03:00am 6.5 -0.6 6.4 99 0.0 NNW 33 39 18 21 - - 0.4
30/02:30am 6.5 -0.4 6.4 99 0.0 NNW 32 37 17 20 - - 0.4
30/02:00am 6.6 -0.5 6.5 99 0.0 NNW 33 39 18 21 - - 0.4
30/01:30am 6.6 -0.5 6.5 99 0.0 NNW 33 37 18 20 - - 0.4
30/01:00am 6.4 -0.1 6.3 99 0.0 NNW 30 35 16 19 - - 0.4
30/12:30am 6.3 0.1 6.2 99 0.0 NNW 28 33 15 18 - - 0.4
30/12:00am 6.3 0.5 6.2 99 0.0 NNW 26 32 14 17 - - 0.4
 
Date/Time
EST
Temp
°C
App
Temp
°C
Dew
Point
Rel
Hum
%
Delta-T
°C
Wind Press
QNH
hPa
Press
MSL
hPa
Rain
since 9 am
mm
Dir
 
Spd
km/h
Gust
km/h
Spd
kts
Gust
kts
29/11:30pm 6.5 -0.4 6.4 99 0.0 NNW 32 37 17 20 - - 0.4
29/11:00pm 6.6 1.2 6.5 99 0.0 NNW 24 32 13 17 - - 0.4
29/10:30pm 6.5 1.8 6.1 97 0.2 NW 20 24 11 13 - - 0.4
29/10:00pm 6.7 0.2 6.4 98 0.1 NNW 30 35 16 19 - - 0.4
29/09:30pm 7.0 0.9 6.6 97 0.2 NNW 28 37 15 20 - - 0.4
29/09:00pm 7.0 0.9 6.6 97 0.2 NNW 28 33 15 18 - - 0.4
29/08:30pm 7.1 1.5 7.0 99 0.0 N 26 33 14 18 - - 0.4
29/08:00pm 7.1 2.6 6.8 98 0.1 NNW 20 26 11 14 - - 0.4

Other Formats:

Comma delimited format used in spreadsheet applications
http://www.bom.gov.au/fwo/IDT60801/IDT60801.95958.axf

JavaScript Object Notation format (JSON) in row-major order
http://www.bom.gov.au/fwo/IDT60801/IDT60801.95958.json